Pagrindinis puslapis
METAR-TAF:

METAR-TAF

Oro uostai :

Linden, Naujasis Džersis, Jungtinės Amerikos Valstijos

platuma: 40-37-03N, ilguma: 074-14-40W, Aukštis: 7 m

Dabartinis oras

Ataskaita buvo paskelbta 26 minutes, ne 06:55 UTC
Vėjas 8 kt iš Vakarų su gūsio iki 15 kt
Temperatūra -1°C
Drėgmė 46%
Slėgis 1011 hPa
Matomumas: 16.1 km
Su prošvaistėmis ne aukštis 6500 ft

METAR: KLDJ 280655Z AUTO 28008G15KT 10SM BKN065 M01/M11 A2985 RMK AO2 T10071111

Laikas: 02:21 (07:21 UTC)


TAF: trūkstamas

Orai ataskaitas ir orų prognozės (METAR, TAF).

turimą stotys yra geltonos ir raudonos taškus žemėlapyje.

Perkelti pele per norėdami pamatyti stoties vardą.

Tada spustelėkite, norėdami matyti oro stebėjimo ir prognozės.

Norėdami pakeisti žemėlapį: spustelėkite ant žalios mygtukų su juodo kryžiaus žemyn,; žalią mygtuką su brūkšneliu, jei norite nutolinti; arba žalių rodyklių gretimoms žemėlapius.


METAR-TAF: